Dalhart, Texas
Current Conditions -  °F | °C
As of 11:53 PM on Thursday 30 Oct 2014 (Local Time) from KDHT Reporting Station
Clear Clear  
Wind Chill: 44°   Ceiling: Unl
Heat Index: 48°   Visibility: 10mi
Dew Point: 29°   Wind: 8mph
Humidity: 48%   Direction: 40°NE
Pressure: 30.4"   Gusts: NA
Location:  36.06°N, 102.52°W
Report Text: KDHT 310453Z AUTO 04007KT 10SM CLR 09/M02 A3040 RMK AO2 SLP266 T00891017
Loading
Personal Weather Stations






























Interactive Weather Map New forecast layout! Learn more

10-Day Weather Forecast

Advertisements
Track Severe Weather on mobile